Time;durP1;ratioP1;P1;durP2;ratioP2;P2;SDS_P1;SDS_P2;PMS_P1;PMS_P2;Temp;Humidity;BMP_temperature;BMP_pressure;BME280_temperature;BME280_humidity;BME280_pressure;Samples;Min_cycle;Max_cycle;Signal;HPM_P1;HPM_P2
2023/03/15 00:00:43;;;;;;;;;5.60;5.60;;;;;;;;5229039;28;8930;-72
2023/03/15 00:03:15;;;;;;;;;6.40;6.40;;;;;;;;5232609;28;8793;-72
2023/03/15 00:05:47;;;;;;;;;5.40;5.00;;;;;;;;5231296;28;8792;-71
2023/03/15 00:08:18;;;;;;;;;5.40;5.40;;;;;;;;5214381;28;8797;-72
2023/03/15 00:10:49;;;;;;;;;7.60;7.60;;;;;;;;5217056;28;8805;-72
2023/03/15 00:13:20;;;;;;;;;6.60;6.60;;;;;;;;5231224;28;8805;-72
2023/03/15 00:15:52;;;;;;;;;5.40;5.40;;;;;;;;5231188;28;8796;-72
2023/03/15 00:18:24;;;;;;;;;6.40;5.60;;;;;;;;5214392;28;8858;-72
2023/03/15 00:20:56;;;;;;;;;8.20;7.40;;;;;;;;5203305;28;8810;-72
2023/03/15 00:23:27;;;;;;;;;5.40;5.40;;;;;;;;5208779;28;8795;-75
2023/03/15 00:26:17;;;;;;;;;5.00;5.00;;;;;;;;5230250;28;8801;-74
2023/03/15 00:29:06;;;;;;;;;9.00;9.00;;;;;;;;5246186;28;8817;-74
2023/03/15 00:31:37;;;;;;;;;7.50;7.50;;;;;;;;5212787;28;8777;-74
2023/03/15 00:34:08;;;;;;;;;6.40;6.40;;;;;;;;5247452;28;8839;-74
2023/03/15 00:36:42;;;;;;;;;4.40;4.40;;;;;;;;5229435;28;8800;-73
2023/03/15 00:39:14;;;;;;;;;6.80;6.80;;;;;;;;5218229;28;8775;-74
2023/03/15 00:41:45;;;;;;;;;6.20;6.20;;;;;;;;5208477;28;8808;-74
2023/03/15 00:44:17;;;;;;;;;5.20;5.20;;;;;;;;5212641;28;8796;-73
2023/03/15 00:46:48;;;;;;;;;4.80;4.80;;;;;;;;5213411;28;8800;-72
2023/03/15 00:49:20;;;;;;;;;7.20;6.60;;;;;;;;5213394;28;8763;-73
2023/03/15 00:51:53;;;;;;;;;4.00;4.00;;;;;;;;5247690;28;8768;-73
2023/03/15 00:54:24;;;;;;;;;6.60;6.60;;;;;;;;5229685;28;8818;-73
2023/03/15 00:56:55;;;;;;;;;5.00;5.00;;;;;;;;5213281;28;8911;-73
2023/03/15 00:59:45;;;;;;;;;5.80;5.80;;;;;;;;5218730;28;8800;-74
2023/03/15 01:02:36;;;;;;;;;3.40;3.40;;;;;;;;5245968;28;8782;-73
2023/03/15 01:05:26;;;;;;;;;4.20;4.20;;;;;;;;5250939;28;8779;-73
2023/03/15 01:07:57;;;;;;;;;2.00;2.00;;;;;;;;5234192;28;8794;-73
2023/03/15 01:10:28;;;;;;;;;2.20;2.20;;;;;;;;5234016;28;8770;-73
2023/03/15 01:13:18;;;;;;;;;4.60;4.20;;;;;;;;5236048;28;8866;-73
2023/03/15 01:15:49;;;;;;;;;5.80;5.80;;;;;;;;5229652;28;8784;-73
2023/03/15 01:18:20;;;;;;;;;6.00;5.40;;;;;;;;5212982;28;8788;-73
2023/03/15 01:20:51;;;;;;;;;4.80;4.80;;;;;;;;5217969;28;9531;-73
2023/03/15 01:23:23;;;;;;;;;6.60;6.60;;;;;;;;5250396;28;9505;-73
2023/03/15 01:25:58;;;;;;;;;6.80;6.00;;;;;;;;5233246;28;8927;-73
2023/03/15 01:29:31;;;;;;;;;10.60;9.40;;;;;;;;5293932;27;1522037;-73
2023/03/15 01:32:02;;;;;;;;;10.00;8.40;;;;;;;;5309780;27;8774;-73
2023/03/15 01:34:34;;;;;;;;;1.80;1.80;;;;;;;;5292357;27;8794;-72
2023/03/15 01:37:05;;;;;;;;;6.60;6.60;;;;;;;;5284822;27;8796;-74
2023/03/15 01:39:42;;;;;;;;;4.60;4.60;;;;;;;;5271657;27;8788;-74
2023/03/15 01:42:13;;;;;;;;;5.20;3.80;;;;;;;;5291456;27;8801;-74
2023/03/15 01:44:49;;;;;;;;;7.80;7.80;;;;;;;;5309200;27;8778;-73
2023/03/15 01:47:21;;;;;;;;;10.60;9.20;;;;;;;;5292287;27;8957;-74
2023/03/15 01:50:11;;;;;;;;;14.60;13.20;;;;;;;;5295212;27;8790;-73
2023/03/15 01:52:42;;;;;;;;;10.80;10.80;;;;;;;;5327528;27;8771;-73
2023/03/15 01:55:20;;;;;;;;;9.00;9.00;;;;;;;;5288169;27;8796;-73
2023/03/15 01:58:08;;;;;;;;;11.00;11.00;;;;;;;;5288170;27;8776;-73
2023/03/15 02:00:43;;;;;;;;;11.20;11.20;;;;;;;;5298486;27;8782;-74
2023/03/15 02:03:22;;;;;;;;;13.20;12.60;;;;;;;;5292052;27;9650;-74
2023/03/15 02:06:00;;;;;;;;;15.20;13.20;;;;;;;;5291672;27;8908;-74
2023/03/15 02:08:58;;;;;;;;;20.00;20.00;;;;;;;;5284499;27;8798;-72
2023/03/15 02:11:32;;;;;;;;;17.40;17.00;;;;;;;;5308951;27;8754;-72
2023/03/15 02:14:05;;;;;;;;;21.40;20.40;;;;;;;;5291739;27;8847;-72
2023/03/15 02:16:38;;;;;;;;;19.20;18.80;;;;;;;;5291416;27;8775;-75
2023/03/15 02:19:48;;;;;;;;;16.80;16.80;;;;;;;;5309763;27;8788;-74
2023/03/15 02:22:26;;;;;;;;;16.80;15.20;;;;;;;;5287567;27;9482;-73
2023/03/15 02:24:57;;;;;;;;;10.00;10.00;;;;;;;;5254044;27;9557;-73
2023/03/15 02:27:35;;;;;;;;;18.60;18.60;;;;;;;;5286941;27;8812;-73
2023/03/15 02:30:06;;;;;;;;;17.00;17.00;;;;;;;;5305087;27;8793;-73
2023/03/15 02:32:37;;;;;;;;;9.80;9.80;;;;;;;;5305548;27;9833;-72
2023/03/15 02:35:30;;;;;;;;;10.60;9.60;;;;;;;;5273039;27;8780;-72
2023/03/15 02:38:04;;;;;;;;;10.60;10.60;;;;;;;;5287101;27;8800;-73
2023/03/15 02:40:35;;;;;;;;;9.60;9.60;;;;;;;;5257856;28;8799;-74
2023/03/15 02:43:10;;;;;;;;;6.00;6.00;;;;;;;;5291238;28;8865;-74
2023/03/15 02:45:41;;;;;;;;;2.20;2.20;;;;;;;;5273506;28;8796;-71
2023/03/15 02:48:32;;;;;;;;;9.60;9.00;;;;;;;;5258933;28;8828;-75
2023/03/15 02:51:23;;;;;;;;;10.80;10.80;;;;;;;;5254513;28;8791;-73
2023/03/15 02:53:55;;;;;;;;;12.00;12.00;;;;;;;;5252093;28;8836;-72
2023/03/15 02:56:26;;;;;;;;;10.00;10.00;;;;;;;;5235300;28;8783;-72
2023/03/15 02:58:57;;;;;;;;;11.00;11.00;;;;;;;;5235150;28;8779;-72
2023/03/15 03:01:27;;;;;;;;;9.75;9.75;;;;;;;;5218223;28;12282;-73
2023/03/15 03:03:58;;;;;;;;;10.00;10.00;;;;;;;;5274180;28;8795;-73
2023/03/15 03:06:30;;;;;;;;;13.60;11.40;;;;;;;;5255691;28;10834;-73
2023/03/15 03:09:02;;;;;;;;;10.40;10.00;;;;;;;;5251207;28;8818;-74
2023/03/15 03:11:33;;;;;;;;;11.00;11.00;;;;;;;;5251456;28;8786;-74
2023/03/15 03:14:05;;;;;;;;;11.20;11.20;;;;;;;;5251273;28;8782;-74
2023/03/15 03:16:36;;;;;;;;;14.20;13.40;;;;;;;;5234663;28;8885;-73
2023/03/15 03:19:08;;;;;;;;;14.75;14.50;;;;;;;;5269559;28;8905;-73
2023/03/15 03:21:42;;;;;;;;;10.20;10.20;;;;;;;;5234669;28;8786;-72
2023/03/15 03:24:15;;;;;;;;;11.40;10.00;;;;;;;;5268216;28;8800;-72
2023/03/15 03:26:46;;;;;;;;;11.80;11.80;;;;;;;;5255205;28;8776;-75
2023/03/15 03:29:35;;;;;;;;;20.60;19.60;;;;;;;;5274344;28;8832;-73
2023/03/15 03:32:07;;;;;;;;;8.60;8.60;;;;;;;;5254500;28;8804;-71
2023/03/15 03:34:39;;;;;;;;;13.00;12.60;;;;;;;;5270804;28;8889;-73
2023/03/15 03:37:29;;;;;;;;;15.40;15.40;;;;;;;;5273576;27;9512;-73
2023/03/15 03:40:08;;;;;;;;;10.80;9.80;;;;;;;;5235126;28;8999;-73
2023/03/15 03:42:43;;;;;;;;;16.60;15.60;;;;;;;;5235121;28;8859;-74
2023/03/15 03:45:14;;;;;;;;;12.20;10.20;;;;;;;;5271647;28;8788;-73
2023/03/15 03:47:50;;;;;;;;;11.20;11.20;;;;;;;;5254260;28;8789;-73
2023/03/15 03:50:21;;;;;;;;;9.20;7.80;;;;;;;;5271029;28;8776;-71
2023/03/15 03:53:11;;;;;;;;;9.00;9.00;;;;;;;;5274222;28;8815;-73
2023/03/15 03:55:42;;;;;;;;;13.80;13.80;;;;;;;;5272897;27;8773;-73
2023/03/15 03:58:13;;;;;;;;;14.60;14.20;;;;;;;;5256226;27;8766;-74
2023/03/15 04:00:53;;;;;;;;;9.60;9.60;;;;;;;;5238774;28;8894;-71
2023/03/15 04:03:27;;;;;;;;;8.80;8.80;;;;;;;;5254131;28;8983;-73
2023/03/15 04:06:08;;;;;;;;;6.20;6.20;;;;;;;;5271024;28;8768;-80
2023/03/15 04:08:45;;;;;;;;;9.40;9.40;;;;;;;;5264058;28;8816;-79
2023/03/15 04:11:25;;;;;;;;;4.80;4.20;;;;;;;;5263597;27;9574;-78
2023/03/15 04:14:02;;;;;;;;;4.40;4.40;;;;;;;;5276404;27;8817;-80
2023/03/15 04:16:35;;;;;;;;;6.80;6.80;;;;;;;;5275243;27;8782;-79
2023/03/15 04:19:11;;;;;;;;;3.80;3.80;;;;;;;;5259038;27;8854;-80
2023/03/15 04:21:47;;;;;;;;;2.60;2.60;;;;;;;;5259140;27;8774;-79
2023/03/15 04:24:29;;;;;;;;;5.20;5.20;;;;;;;;5272114;27;9540;-81
2023/03/15 04:27:21;;;;;;;;;3.40;3.40;;;;;;;;5239975;28;8808;-81
2023/03/15 04:30:04;;;;;;;;;8.00;8.00;;;;;;;;5257098;28;8788;-81
2023/03/15 04:32:37;;;;;;;;;5.80;5.00;;;;;;;;5253712;28;8950;-80
2023/03/15 04:35:36;;;;;;;;;2.40;2.40;;;;;;;;5237108;28;8810;-80
2023/03/15 04:38:31;;;;;;;;;3.00;3.00;;;;;;;;5219745;28;8801;-80
2023/03/15 04:41:12;;;;;;;;;3.00;3.00;;;;;;;;5218174;28;8813;-81
2023/03/15 04:44:04;;;;;;;;;3.00;3.00;;;;;;;;5256408;28;8795;-82
2023/03/15 04:46:58;;;;;;;;;2.40;2.40;;;;;;;;5240626;28;8780;-81
2023/03/15 04:49:57;;;;;;;;;6.00;5.20;;;;;;;;5236766;28;8875;-82
2023/03/15 04:52:38;;;;;;;;;82.00;62.20;;;;;;;;5232920;28;8798;-80
2023/03/15 04:55:38;;;;;;;;;17.80;17.80;;;;;;;;5234976;28;8792;-80
2023/03/15 04:58:34;;;;;;;;;6.00;6.00;;;;;;;;5229491;28;8795;-80
2023/03/15 05:01:14;;;;;;;;;5.20;5.00;;;;;;;;5255697;28;8869;-81
2023/03/15 05:04:12;;;;;;;;;2.80;2.80;;;;;;;;5247623;28;8788;-83
2023/03/15 05:07:01;;;;;;;;;5.40;5.40;;;;;;;;5262493;28;8786;-83
2023/03/15 05:09:48;;;;;;;;;7.00;7.00;;;;;;;;5258057;28;8865;-76
2023/03/15 05:12:42;;;;;;;;;3.20;3.20;;;;;;;;5266587;28;8869;-82
2023/03/15 05:15:33;;;;;;;;;7.40;7.40;;;;;;;;5259108;28;8901;-80
2023/03/15 05:18:18;;;;;;;;;8.80;8.80;;;;;;;;5247911;28;8797;-75
2023/03/15 05:21:08;;;;;;;;;8.00;8.00;;;;;;;;5267899;28;8796;-75
2023/03/15 05:23:48;;;;;;;;;9.80;9.80;;;;;;;;5249278;28;8781;-74
2023/03/15 05:26:38;;;;;;;;;14.80;14.80;;;;;;;;5264181;28;8804;-75
2023/03/15 05:29:28;;;;;;;;;18.80;16.40;;;;;;;;5285481;28;8832;-75
2023/03/15 05:32:12;;;;;;;;;17.60;17.00;;;;;;;;5267773;28;8803;-74
2023/03/15 05:35:03;;;;;;;;;18.40;18.40;;;;;;;;5270687;28;8918;-77
2023/03/15 05:37:57;;;;;;;;;16.20;16.20;;;;;;;;5239100;28;8784;-76
2023/03/15 05:40:46;;;;;;;;;15.80;15.60;;;;;;;;5267405;28;8808;-74
2023/03/15 05:43:36;;;;;;;;;16.80;16.80;;;;;;;;5267234;28;8796;-77
2023/03/15 05:46:26;;;;;;;;;16.80;16.80;;;;;;;;5265904;28;8790;-75
2023/03/15 05:49:17;;;;;;;;;17.00;17.00;;;;;;;;5263122;28;8809;-83
2023/03/15 05:51:56;;;;;;;;;14.20;14.20;;;;;;;;5245054;28;8804;-82
2023/03/15 05:54:47;;;;;;;;;18.00;17.60;;;;;;;;5266671;28;8948;-83
2023/03/15 05:57:36;;;;;;;;;17.60;17.60;;;;;;;;5271044;27;8791;-81
2023/03/15 06:00:26;;;;;;;;;11.20;11.00;;;;;;;;5271934;28;8815;-82
2023/03/15 06:03:16;;;;;;;;;12.00;12.00;;;;;;;;5267086;28;8823;-73
2023/03/15 06:06:05;;;;;;;;;11.20;11.20;;;;;;;;5252907;28;8807;-77
2023/03/15 06:08:42;;;;;;;;;15.40;14.80;;;;;;;;5267700;28;8808;-78
2023/03/15 06:11:13;;;;;;;;;11.60;11.20;;;;;;;;5266530;28;8811;-80
2023/03/15 06:13:44;;;;;;;;;11.20;10.80;;;;;;;;5249563;28;8804;-77
2023/03/15 06:16:23;;;;;;;;;11.60;11.60;;;;;;;;5267758;28;8826;-84
2023/03/15 06:18:59;;;;;;;;;12.00;12.00;;;;;;;;5249138;28;8776;-84
2023/03/15 06:21:50;;;;;;;;;64.00;47.60;;;;;;;;5269005;27;8978;-84
2023/03/15 06:24:29;;;;;;;;;149.40;122.00;;;;;;;;5279936;27;8809;-81
2023/03/15 06:27:02;;;;;;;;;46.20;41.60;;;;;;;;5270747;27;8864;-83
2023/03/15 06:29:35;;;;;;;;;14.00;14.00;;;;;;;;5252815;28;8862;-85
2023/03/15 06:32:10;;;;;;;;;12.40;12.40;;;;;;;;5253168;28;8838;-86
2023/03/15 06:34:46;;;;;;;;;7.80;7.80;;;;;;;;5247230;28;8795;-83
2023/03/15 06:37:20;;;;;;;;;14.00;13.60;;;;;;;;5242276;28;8798;-83
2023/03/15 06:39:54;;;;;;;;;8.60;8.60;;;;;;;;5229824;28;8795;-84
2023/03/15 06:42:26;;;;;;;;;9.40;9.40;;;;;;;;5234924;28;8791;-82
2023/03/15 06:45:00;;;;;;;;;10.40;9.20;;;;;;;;5263143;28;8809;-83
2023/03/15 06:50:34;;;;;;;;;10.00;10.00;;;;;;;;5302271;23;8657;-85
2023/03/15 06:53:08;;;;;;;;;21.20;21.20;;;;;;;;5105065;28;8906;-83
2023/03/15 06:55:41;;;;;;;;;14.20;13.80;;;;;;;;5114592;28;8833;-83
2023/03/15 06:58:14;;;;;;;;;13.40;13.00;;;;;;;;5113300;28;8803;-83
2023/03/15 07:00:48;;;;;;;;;19.00;19.00;;;;;;;;5105609;28;8816;-83
2023/03/15 07:03:22;;;;;;;;;25.20;24.20;;;;;;;;5114630;28;8803;-83
2023/03/15 07:05:55;;;;;;;;;19.60;19.60;;;;;;;;5104738;28;8811;-83
2023/03/15 07:08:47;;;;;;;;;35.20;31.60;;;;;;;;5123645;28;8847;-83
2023/03/15 07:11:20;;;;;;;;;18.20;16.40;;;;;;;;5118639;28;8878;-83
2023/03/15 07:13:53;;;;;;;;;12.20;12.20;;;;;;;;5133613;28;8799;-82
2023/03/15 07:16:25;;;;;;;;;14.00;14.00;;;;;;;;5123054;28;8811;-83
2023/03/15 07:18:58;;;;;;;;;13.80;13.20;;;;;;;;5098411;28;8807;-81
2023/03/15 07:21:50;;;;;;;;;7.00;7.00;;;;;;;;5117930;28;8818;-81
2023/03/15 07:24:21;;;;;;;;;5.50;5.50;;;;;;;;5109390;28;8789;-76
2023/03/15 07:26:55;;;;;;;;;5.50;5.50;;;;;;;;5109708;28;8837;-76
2023/03/15 07:29:26;;;;;;;;;4.00;4.00;;;;;;;;5093861;28;8915;-76
2023/03/15 07:31:57;;;;;;;;;4.00;4.00;;;;;;;;5109405;28;8814;-76
2023/03/15 07:34:28;;;;;;;;;7.25;7.25;;;;;;;;5111115;28;8815;-76
2023/03/15 07:37:17;;;;;;;;;8.80;8.80;;;;;;;;5109853;28;8835;-77
2023/03/15 07:39:48;;;;;;;;;6.33;6.33;;;;;;;;5110488;28;8852;-77
2023/03/15 07:42:19;;;;;;;;;2.33;2.33;;;;;;;;5110176;28;8809;-77
2023/03/15 07:44:55;;;;;;;;;5.75;5.75;;;;;;;;5105274;28;11606;-78
2023/03/15 07:47:26;;;;;;;;;11.40;11.40;;;;;;;;5104658;29;8865;-77
2023/03/15 07:49:57;;;;;;;;;6.00;6.00;;;;;;;;5104848;29;8869;-79
2023/03/15 07:52:28;;;;;;;;;6.25;5.50;;;;;;;;5085129;29;8813;-78
2023/03/15 07:54:59;;;;;;;;;9.25;9.25;;;;;;;;5069368;29;8808;-78
2023/03/15 07:57:31;;;;;;;;;2.00;2.00;;;;;;;;5104012;29;8803;-77
2023/03/15 08:00:03;;;;;;;;;19.40;19.40;;;;;;;;5084309;29;8899;-77
2023/03/15 08:02:52;;;;;;;;;5.20;5.20;;;;;;;;5099013;29;8956;-76
2023/03/15 08:05:24;;;;;;;;;3.00;3.00;;;;;;;;5087552;29;8817;-76
2023/03/15 08:07:55;;;;;;;;;7.75;7.75;;;;;;;;5087509;29;8849;-76
2023/03/15 08:10:45;;;;;;;;;2.00;2.00;;;;;;;;5110824;29;8821;-76
2023/03/15 08:13:16;;;;;;;;;2.40;1.40;;;;;;;;5104277;29;8868;-75
2023/03/15 08:15:47;;;;;;;;;5.00;5.00;;;;;;;;5104273;29;8786;-76
2023/03/15 08:18:17;;;;;;;;;10.00;9.00;;;;;;;;5103915;29;8998;-76
2023/03/15 08:20:48;;;;;;;;;18.33;18.33;;;;;;;;5105500;29;8798;-76
2023/03/15 08:23:20;;;;;;;;;15.75;15.25;;;;;;;;5103980;29;11563;-76
2023/03/15 08:25:51;;;;;;;;;12.75;12.75;;;;;;;;5103807;29;11709;-76
2023/03/15 08:28:41;;;;;;;;;15.40;11.80;;;;;;;;5104056;29;8837;-76
2023/03/15 08:31:12;;;;;;;;;11.80;11.80;;;;;;;;5104334;29;8828;-76
2023/03/15 08:33:43;;;;;;;;;47.20;41.20;;;;;;;;5104196;29;8801;-75
2023/03/15 08:36:14;;;;;;;;;9.33;8.00;;;;;;;;5106335;29;8836;-76
2023/03/15 08:38:45;;;;;;;;;11.25;11.25;;;;;;;;5111480;29;8946;-76
2023/03/15 08:41:16;;;;;;;;;9.00;9.00;;;;;;;;5084130;29;8919;-77
2023/03/15 08:43:47;;;;;;;;;7.00;7.00;;;;;;;;5101992;28;11568;-76
2023/03/15 08:46:20;;;;;;;;;11.33;11.33;;;;;;;;5117301;28;11692;-76
2023/03/15 08:48:51;;;;;;;;;7.00;7.00;;;;;;;;5092287;28;8849;-76
2023/03/15 08:51:24;;;;;;;;;8.25;8.25;;;;;;;;5107770;28;8884;-75
2023/03/15 08:53:56;;;;;;;;;5.25;5.00;;;;;;;;5108236;28;8818;-75
2023/03/15 08:56:27;;;;;;;;;3.75;3.75;;;;;;;;5109486;28;8836;-75
2023/03/15 08:58:58;;;;;;;;;57.80;49.00;;;;;;;;5109636;28;9582;-75
2023/03/15 09:01:47;;;;;;;;;8.80;8.80;;;;;;;;5110601;28;8813;-75
2023/03/15 09:04:18;;;;;;;;;10.00;10.00;;;;;;;;5116327;28;8846;-74
2023/03/15 09:07:07;;;;;;;;;8.00;8.00;;;;;;;;5110084;28;8837;-82
2023/03/15 09:09:39;;;;;;;;;12.25;11.75;;;;;;;;5093200;28;8870;-83
2023/03/15 09:12:34;;;;;;;;;8.00;8.00;;;;;;;;5327340;23;8901;31
2023/03/15 09:15:08;;;;;;;;;9.00;9.00;;;;;;;;5141917;23;9644;-84
2023/03/15 09:17:40;;;;;;;;;9.00;9.00;;;;;;;;5425082;23;8886;-83
2023/03/15 09:20:17;;;;;;;;;9.25;9.25;;;;;;;;5090503;29;8816;-83
2023/03/15 09:22:52;;;;;;;;;9.00;9.00;;;;;;;;5073641;29;8895;-83
2023/03/15 09:25:24;;;;;;;;;4.50;4.50;;;;;;;;5072028;29;8851;-84
2023/03/15 09:27:55;;;;;;;;;6.00;6.00;;;;;;;;5071821;29;8838;-83
2023/03/15 09:30:27;;;;;;;;;11.00;11.00;;;;;;;;5088901;29;8819;-83
2023/03/15 09:32:59;;;;;;;;;5.75;5.75;;;;;;;;5094587;29;9487;-81
2023/03/15 09:35:50;;;;;;;;;10.60;10.00;;;;;;;;5088790;29;8844;-82
2023/03/15 09:38:22;;;;;;;;;10.00;10.00;;;;;;;;5090084;29;8819;-83
2023/03/15 09:40:57;;;;;;;;;10.40;10.40;;;;;;;;5093534;29;8913;-83
2023/03/15 09:43:29;;;;;;;;;17.80;16.80;;;;;;;;5070214;29;8832;-83
2023/03/15 09:46:18;;;;;;;;;10.75;10.75;;;;;;;;5056319;29;8828;-82
2023/03/15 09:49:27;;;;;;;;;14.20;14.00;;;;;;;;5074432;29;8822;-83
2023/03/15 09:52:02;;;;;;;;;7.50;6.50;;;;;;;;5079726;29;8819;-83
2023/03/15 09:54:39;;;;;;;;;12.80;12.00;;;;;;;;5096524;29;8828;-83
2023/03/15 09:57:17;;;;;;;;;10.00;10.00;;;;;;;;5077917;29;8826;-84
2023/03/15 09:59:51;;;;;;;;;6.50;6.50;;;;;;;;5081922;29;8925;-83
2023/03/15 10:02:29;;;;;;;;;15.60;15.60;;;;;;;;5080266;29;8820;-84
2023/03/15 10:05:10;;;;;;;;;50.40;39.20;;;;;;;;5096728;29;8934;-84
2023/03/15 10:07:41;;;;;;;;;8.50;8.50;;;;;;;;5098056;29;8855;-82
2023/03/15 10:10:33;;;;;;;;;8.75;8.00;;;;;;;;5097712;29;8969;-83
2023/03/15 10:13:23;;;;;;;;;3.00;2.75;;;;;;;;5068504;29;8881;-82
2023/03/15 10:15:54;;;;;;;;;15.00;12.00;;;;;;;;5058262;29;8938;-83
2023/03/15 10:18:48;;;;;;;;;8.00;8.00;;;;;;;;5057852;29;8853;-76
2023/03/15 10:21:42;;;;;;;;;8.80;8.80;;;;;;;;5032202;29;8821;-83
2023/03/15 10:24:18;;;;;;;;;9.50;9.50;;;;;;;;5083017;29;8855;-83
2023/03/15 10:26:50;;;;;;;;;6.25;5.75;;;;;;;;5078363;29;8803;-82
2023/03/15 10:29:24;;;;;;;;;5.25;5.25;;;;;;;;5072046;29;8856;-74
2023/03/15 10:31:55;;;;;;;;;1.75;1.75;;;;;;;;5070856;29;8821;-79
2023/03/15 10:34:26;;;;;;;;;28.00;28.00;;;;;;;;5072824;29;9558;-76
2023/03/15 10:36:56;;;;;;;;;15.00;15.00;;;;;;;;5096209;29;9471;-76
2023/03/15 10:39:28;;;;;;;;;5.00;5.00;;;;;;;;5088901;29;10148;-78
2023/03/15 10:41:59;;;;;;;;;22.00;21.80;;;;;;;;5088768;29;8829;-76
2023/03/15 10:44:35;;;;;;;;;5.00;5.00;;;;;;;;5087273;29;8805;-76
2023/03/15 10:47:11;;;;;;;;;5.25;5.25;;;;;;;;5086174;29;10231;-76
2023/03/15 10:49:43;;;;;;;;;5.75;5.00;;;;;;;;5090495;29;8847;-76
2023/03/15 10:52:26;;;;;;;;;6.50;6.50;;;;;;;;5094215;29;8873;-76
2023/03/15 10:54:59;;;;;;;;;4.25;4.25;;;;;;;;5077947;29;8811;-76
2023/03/15 10:57:36;;;;;;;;;2.50;2.50;;;;;;;;5083758;29;8814;-76
2023/03/15 11:00:19;;;;;;;;;6.00;5.25;;;;;;;;5070107;29;8810;-76
2023/03/15 11:02:59;;;;;;;;;6.00;6.00;;;;;;;;5092854;29;8827;-76
2023/03/15 11:05:31;;;;;;;;;5.50;5.50;;;;;;;;5105363;29;8918;-76
2023/03/15 11:08:02;;;;;;;;;7.25;6.75;;;;;;;;5089526;29;8980;-76
2023/03/15 11:10:34;;;;;;;;;6.25;6.25;;;;;;;;5089685;29;8815;-76
2023/03/15 11:13:09;;;;;;;;;8.50;8.50;;;;;;;;5106260;29;8808;-76
2023/03/15 11:15:46;;;;;;;;;10.25;10.25;;;;;;;;5106500;29;8803;-76
2023/03/15 11:18:18;;;;;;;;;10.25;10.25;;;;;;;;5091842;29;8862;-76
2023/03/15 11:20:53;;;;;;;;;7.25;7.25;;;;;;;;5090972;29;8819;-76
2023/03/15 11:23:26;;;;;;;;;5.25;5.25;;;;;;;;5088242;29;8835;-75
2023/03/15 11:25:57;;;;;;;;;32.20;30.40;;;;;;;;5088820;29;8835;-80
2023/03/15 11:28:30;;;;;;;;;12.25;11.00;;;;;;;;5104658;29;8839;-78
2023/03/15 11:31:03;;;;;;;;;11.50;11.50;;;;;;;;5089591;29;8834;-77
2023/03/15 11:33:42;;;;;;;;;4.50;4.25;;;;;;;;5099437;29;8845;-77
2023/03/15 11:36:16;;;;;;;;;0.50;0.50;;;;;;;;5085672;29;8842;-76
2023/03/15 11:38:47;;;;;;;;;5.25;5.25;;;;;;;;5088480;29;8811;-76
2023/03/15 11:41:50;;;;;;;;;3.75;3.75;;;;;;;;5092546;29;8881;-77
2023/03/15 11:44:21;;;;;;;;;5.50;5.50;;;;;;;;5072472;29;8885;-78
2023/03/15 11:46:56;;;;;;;;;6.50;6.50;;;;;;;;5069089;29;8884;-77
2023/03/15 11:49:41;;;;;;;;;6.75;6.75;;;;;;;;5053446;29;8852;-77
2023/03/15 11:52:14;;;;;;;;;7.25;7.25;;;;;;;;5105396;29;8857;-76
2023/03/15 11:54:46;;;;;;;;;6.25;6.25;;;;;;;;5088308;29;8811;-76
2023/03/15 11:57:35;;;;;;;;;9.75;9.75;;;;;;;;5084769;29;8790;-76
2023/03/15 12:00:33;;;;;;;;;4.25;4.25;;;;;;;;5084914;29;8809;-77
2023/03/15 12:03:36;;;;;;;;;5.25;5.25;;;;;;;;5084657;29;8853;-76
2023/03/15 12:06:36;;;;;;;;;20.60;19.60;;;;;;;;5068944;29;8787;-77
2023/03/15 12:09:25;;;;;;;;;7.00;6.50;;;;;;;;5076769;29;8826;-76
2023/03/15 12:12:04;;;;;;;;;8.00;7.75;;;;;;;;5084136;29;8794;-76
2023/03/15 12:14:36;;;;;;;;;4.50;4.50;;;;;;;;5084746;29;8794;-76
2023/03/15 12:17:22;;;;;;;;;4.00;4.00;;;;;;;;5088179;29;8914;-77
2023/03/15 12:20:05;;;;;;;;;6.00;6.00;;;;;;;;5084265;29;8852;-77
2023/03/15 12:22:39;;;;;;;;;5.75;5.75;;;;;;;;5084492;29;8932;-77
2023/03/15 12:25:19;;;;;;;;;6.00;6.00;;;;;;;;5085684;29;8810;-77
2023/03/15 12:27:55;;;;;;;;;4.25;4.25;;;;;;;;5077325;29;8879;-76
2023/03/15 12:30:34;;;;;;;;;9.75;8.25;;;;;;;;5052478;29;8837;-76
2023/03/15 12:33:13;;;;;;;;;4.00;4.00;;;;;;;;5096445;29;8807;-77
2023/03/15 12:35:45;;;;;;;;;10.00;10.00;;;;;;;;5104249;29;8831;-77
2023/03/15 12:38:36;;;;;;;;;7.00;7.00;;;;;;;;5070896;29;8861;-77
2023/03/15 12:41:08;;;;;;;;;3.50;3.50;;;;;;;;5094192;29;8815;-77
2023/03/15 12:43:43;;;;;;;;;4.75;4.75;;;;;;;;5081684;29;8862;-76
2023/03/15 12:46:33;;;;;;;;;6.75;6.75;;;;;;;;5070255;29;8846;-77
2023/03/15 12:49:11;;;;;;;;;5.00;5.00;;;;;;;;5092331;29;8870;-78
2023/03/15 12:51:57;;;;;;;;;6.75;6.25;;;;;;;;5077297;29;8815;-77
2023/03/15 12:54:52;;;;;;;;;6.00;6.00;;;;;;;;5102865;29;8822;-77
2023/03/15 12:57:46;;;;;;;;;5.75;5.75;;;;;;;;5091059;29;9569;-77
2023/03/15 13:00:19;;;;;;;;;6.25;6.25;;;;;;;;5069363;29;8851;-78
2023/03/15 13:03:10;;;;;;;;;5.00;5.00;;;;;;;;5095291;29;8848;-84
2023/03/15 13:05:51;;;;;;;;;5.50;5.25;;;;;;;;5085778;29;8804;-83
2023/03/15 13:08:23;;;;;;;;;29.60;27.80;;;;;;;;5079189;29;8845;-78
2023/03/15 13:10:54;;;;;;;;;8.00;8.00;;;;;;;;5114990;28;9688;-79
2023/03/15 13:13:40;;;;;;;;;5.00;5.00;;;;;;;;5067732;29;8940;-78
2023/03/15 13:16:14;;;;;;;;;12.00;11.25;;;;;;;;5072345;29;11557;-77
2023/03/15 13:18:55;;;;;;;;;19.80;19.40;;;;;;;;5083252;29;9639;-77
2023/03/15 13:21:41;;;;;;;;;16.40;15.60;;;;;;;;5055140;29;9577;-78
2023/03/15 13:24:49;;;;;;;;;11.00;10.75;;;;;;;;5093000;29;8960;-78
2023/03/15 13:27:30;;;;;;;;;8.25;8.25;;;;;;;;5098528;29;8818;-80
2023/03/15 13:30:08;;;;;;;;;10.50;9.50;;;;;;;;5067468;29;8794;-80
2023/03/15 13:32:40;;;;;;;;;8.50;8.50;;;;;;;;5100570;29;8803;-79
2023/03/15 13:35:29;;;;;;;;;8.50;8.50;;;;;;;;5101173;29;9527;-81
2023/03/15 13:38:08;;;;;;;;;12.60;12.60;;;;;;;;5084085;29;8811;-78
2023/03/15 13:40:44;;;;;;;;;2.25;2.25;;;;;;;;5087078;29;8811;-78
2023/03/15 13:43:15;;;;;;;;;11.40;11.40;;;;;;;;5096574;29;8886;-80
2023/03/15 13:45:46;;;;;;;;;7.33;7.33;;;;;;;;5068695;29;9533;-79
2023/03/15 13:48:18;;;;;;;;;9.00;9.00;;;;;;;;5100363;29;8905;-79
2023/03/15 13:50:49;;;;;;;;;9.20;8.40;;;;;;;;5083738;29;8808;-78
2023/03/15 13:53:24;;;;;;;;;9.25;9.00;;;;;;;;5090075;29;8861;-78
2023/03/15 13:55:55;;;;;;;;;10.80;10.80;;;;;;;;5072251;29;8891;-82
2023/03/15 13:58:27;;;;;;;;;11.00;11.00;;;;;;;;5082896;29;8843;-83
2023/03/15 14:01:00;;;;;;;;;14.00;12.60;;;;;;;;5097677;29;8834;-80
2023/03/15 14:03:31;;;;;;;;;13.00;13.00;;;;;;;;5066443;29;8825;-79
2023/03/15 14:06:02;;;;;;;;;11.40;10.40;;;;;;;;5082873;29;9510;-80
2023/03/15 14:08:35;;;;;;;;;13.20;12.40;;;;;;;;5087063;29;8822;-79
2023/03/15 14:11:15;;;;;;;;;17.60;16.80;;;;;;;;5064971;29;9000;-78
2023/03/15 14:13:48;;;;;;;;;32.80;30.80;;;;;;;;5095818;29;8815;-83
2023/03/15 14:16:45;;;;;;;;;15.80;15.80;;;;;;;;5093868;29;8912;-85
2023/03/15 14:19:23;;;;;;;;;13.40;13.40;;;;;;;;5075903;29;8894;-85
2023/03/15 14:21:56;;;;;;;;;11.20;11.20;;;;;;;;5062264;29;8843;-81
2023/03/15 14:24:33;;;;;;;;;5.00;5.00;;;;;;;;5058289;29;8814;-84
2023/03/15 14:27:06;;;;;;;;;13.40;13.40;;;;;;;;5073132;29;8842;-85
2023/03/15 14:29:42;;;;;;;;;7.60;7.60;;;;;;;;5092601;29;8832;-83
2023/03/15 14:32:22;;;;;;;;;14.20;13.80;;;;;;;;5077521;29;8844;-83
2023/03/15 14:35:01;;;;;;;;;24.80;24.20;;;;;;;;5071314;29;8833;-87
2023/03/15 14:37:42;;;;;;;;;20.40;20.00;;;;;;;;5071011;29;8802;-80
2023/03/15 14:40:19;;;;;;;;;24.80;22.80;;;;;;;;5104804;28;8819;-81
2023/03/15 14:43:09;;;;;;;;;18.20;17.80;;;;;;;;5096090;29;8823;-83
2023/03/15 14:45:41;;;;;;;;;17.20;15.80;;;;;;;;5091391;29;8841;-81
2023/03/15 14:48:30;;;;;;;;;19.40;19.00;;;;;;;;5093077;29;8858;-83
2023/03/15 14:51:02;;;;;;;;;16.25;16.25;;;;;;;;5070048;29;8827;-86
2023/03/15 14:53:34;;;;;;;;;7.60;7.60;;;;;;;;5087513;29;9609;-83
2023/03/15 14:56:05;;;;;;;;;21.80;21.80;;;;;;;;5072278;29;8815;-81
2023/03/15 14:58:36;;;;;;;;;16.40;16.40;;;;;;;;5098910;29;8808;-85
2023/03/15 15:01:11;;;;;;;;;14.40;14.40;;;;;;;;5083991;29;8845;-84
2023/03/15 15:03:47;;;;;;;;;15.40;15.40;;;;;;;;5069038;29;8822;-80
2023/03/15 15:06:37;;;;;;;;;19.60;19.00;;;;;;;;5082172;29;8856;-83
2023/03/15 15:09:09;;;;;;;;;16.60;16.60;;;;;;;;5084141;29;8955;-79
2023/03/15 15:11:40;;;;;;;;;21.20;19.20;;;;;;;;5072199;29;8819;-87
2023/03/15 15:14:14;;;;;;;;;136.33;112.67;;;;;;;;5086225;29;8850;-82
2023/03/15 15:16:45;;;;;;;;;18.00;18.00;;;;;;;;5105333;29;8897;-81
2023/03/15 15:19:16;;;;;;;;;26.20;25.40;;;;;;;;5095098;29;8957;-80
2023/03/15 15:21:47;;;;;;;;;14.20;14.20;;;;;;;;5088948;29;8874;-80
2023/03/15 15:24:21;;;;;;;;;17.60;17.60;;;;;;;;5089189;29;8926;-80
2023/03/15 15:26:52;;;;;;;;;17.60;17.60;;;;;;;;5101061;29;8811;-80
2023/03/15 15:29:23;;;;;;;;;20.80;19.80;;;;;;;;5102927;29;8949;-86
2023/03/15 15:32:12;;;;;;;;;18.40;18.00;;;;;;;;5107495;29;8815;-79
2023/03/15 15:34:43;;;;;;;;;19.75;19.00;;;;;;;;5105605;29;8808;-82
2023/03/15 15:37:15;;;;;;;;;22.20;21.80;;;;;;;;5104280;29;8970;-82
2023/03/15 15:39:46;;;;;;;;;20.00;20.00;;;;;;;;5104335;29;8823;-81
2023/03/15 15:42:17;;;;;;;;;13.20;13.20;;;;;;;;5084966;29;8835;-87
2023/03/15 15:44:48;;;;;;;;;11.00;9.25;;;;;;;;5088438;29;8815;-79
2023/03/15 15:47:19;;;;;;;;;19.50;19.50;;;;;;;;5093331;29;8906;-80
2023/03/15 15:50:12;;;;;;;;;16.60;16.60;;;;;;;;5091635;29;10485;-82